TimeCST,TemperatureF,Dew PointF,Humidity,Sea Level PressureIn,VisibilityMPH,Wind Direction,Wind SpeedMPH,Gust SpeedMPH,PrecipitationIn,Events,Conditions,WindDirDegrees,DateUTC
12:46 AM,39.2,35.6,87,30.22,5.0,Calm,Calm,-,N/A,,Partly Cloudy,0,2012-11-09 06:46:00
12:53 AM,37.9,37.0,97,30.22,5.0,Calm,Calm,-,N/A,,Scattered Clouds,0,2012-11-09 06:53:00
1:03 AM,37.4,37.4,100,30.22,4.0,Calm,Calm,-,N/A,,Mostly Cloudy,0,2012-11-09 07:03:00
1:37 AM,37.4,35.6,93,30.23,7.0,Calm,Calm,-,N/A,,Scattered Clouds,0,2012-11-09 07:37:00
1:53 AM,37.9,36.0,93,30.22,4.0,Calm,Calm,-,N/A,,Partly Cloudy,0,2012-11-09 07:53:00
2:53 AM,37.9,36.0,93,30.22,7.0,Calm,Calm,-,N/A,,Mostly Cloudy,0,2012-11-09 08:53:00
3:51 AM,37.4,35.6,93,30.25,6.0,Calm,Calm,-,N/A,,Scattered Clouds,0,2012-11-09 09:51:00
3:53 AM,37.0,35.1,93,30.25,6.0,Calm,Calm,-,N/A,,Partly Cloudy,0,2012-11-09 09:53:00
4:53 AM,36.0,35.1,97,30.27,6.0,Calm,Calm,-,N/A,,Clear,0,2012-11-09 10:53:00
5:53 AM,35.1,33.1,92,30.29,6.0,Calm,Calm,-,N/A,,Clear,0,2012-11-09 11:53:00
6:53 AM,36.0,34.0,93,30.31,5.0,Calm,Calm,-,N/A,,Clear,0,2012-11-09 12:53:00
7:01 AM,35.6,33.8,93,30.31,5.0,Calm,Calm,-,N/A,,Partly Cloudy,0,2012-11-09 13:01:00
7:53 AM,42.1,39.0,89,30.32,7.0,Calm,Calm,-,N/A,,Clear,0,2012-11-09 13:53:00
8:53 AM,48.9,44.1,83,30.33,6.0,Calm,Calm,-,N/A,,Haze,0,2012-11-09 14:53:00
9:53 AM,55.9,43.0,62,30.33,9.0,South,3.5,-,N/A,,Clear,190,2012-11-09 15:53:00
10:53 AM,60.1,43.0,53,30.31,10.0,Calm,Calm,-,N/A,,Clear,0,2012-11-09 16:53:00
11:53 AM,63.0,41.0,45,30.28,10.0,Calm,Calm,-,N/A,,Clear,0,2012-11-09 17:53:00
12:53 PM,66.0,39.0,37,30.24,10.0,Calm,Calm,-,N/A,,Clear,0,2012-11-09 18:53:00
1:53 PM,66.0,39.0,37,30.22,10.0,SSW,4.6,-,N/A,,Clear,210,2012-11-09 19:53:00
2:53 PM,66.9,41.0,39,30.21,10.0,South,5.8,-,N/A,,Clear,170,2012-11-09 20:53:00
3:53 PM,66.9,41.0,39,30.21,10.0,SW,4.6,-,N/A,,Clear,230,2012-11-09 21:53:00
4:53 PM,60.1,45.0,57,30.20,10.0,Calm,Calm,-,N/A,,Clear,0,2012-11-09 22:53:00
5:53 PM,54.0,46.0,75,30.22,10.0,Calm,Calm,-,N/A,,Clear,0,2012-11-09 23:53:00
6:53 PM,51.1,46.0,83,30.22,10.0,Calm,Calm,-,N/A,,Clear,0,2012-11-10 00:53:00
7:53 PM,50.0,45.0,83,30.23,8.0,NE,3.5,-,N/A,,Clear,40,2012-11-10 01:53:00
8:53 PM,46.9,45.0,93,30.24,7.0,Calm,Calm,-,N/A,,Clear,0,2012-11-10 02:53:00
9:53 PM,46.0,43.0,89,30.25,7.0,Calm,Calm,-,N/A,,Clear,0,2012-11-10 03:53:00
10:53 PM,45.0,42.1,90,30.25,6.0,Calm,Calm,-,N/A,,Clear,0,2012-11-10 04:53:00
11:53 PM,44.1,42.1,93,30.24,7.0,Calm,Calm,-,N/A,,Clear,0,2012-11-10 05:53:00